Time;durP1;ratioP1;P1;durP2;ratioP2;P2;SDS_P1;SDS_P2;PMS_P1;PMS_P2;Temp;Humidity;BMP_temperature;BMP_pressure;BME280_temperature;BME280_humidity;BME280_pressure;Samples;Min_cycle;Max_cycle;Signal;HPM_P1;HPM_P2
2021/10/19 00:01:03;;;;;;;3.43;2.00;;;10.30;68.30;;;;;;5004801;28;20029;-82
2021/10/19 00:03:29;;;;;;;4.37;2.03;;;10.30;68.40;;;;;;5000178;28;20033;-82
2021/10/19 00:05:55;;;;;;;3.67;2.40;;;10.30;68.60;;;;;;5025461;28;20108;-82
2021/10/19 00:08:21;;;;;;;5.30;2.40;;;10.20;68.50;;;;;;5028539;28;20069;-82
2021/10/19 00:10:46;;;;;;;2.67;1.90;;;10.20;68.50;;;;;;5012508;28;20438;-82
2021/10/19 00:13:12;;;;;;;4.60;2.40;;;10.20;68.70;;;;;;5013239;28;20026;-82
2021/10/19 00:15:38;;;;;;;3.57;2.10;;;10.10;68.80;;;;;;5017928;28;20036;-82
2021/10/19 00:18:04;;;;;;;5.63;2.20;;;10.10;69.10;;;;;;4999722;28;20050;-82
2021/10/19 00:20:29;;;;;;;7.40;2.37;;;10.20;69.00;;;;;;4994731;28;20026;-82
2021/10/19 00:22:55;;;;;;;9.77;3.00;;;10.30;69.00;;;;;;5003868;28;20030;-82
2021/10/19 00:25:21;;;;;;;5.33;2.57;;;10.40;68.90;;;;;;5004583;28;20022;-82
2021/10/19 00:27:47;;;;;;;5.23;3.10;;;10.40;68.70;;;;;;5009401;28;20116;-82
2021/10/19 00:30:15;;;;;;;3.50;2.10;;;10.30;68.60;;;;;;5009183;28;20064;-82
2021/10/19 00:32:42;;;;;;;3.33;2.00;;;10.30;68.80;;;;;;5005007;28;20026;-82
2021/10/19 00:35:08;;;;;;;2.87;1.80;;;10.30;69.00;;;;;;5010093;28;20018;-82
2021/10/19 00:37:34;;;;;;;4.50;2.07;;;10.30;68.80;;;;;;5010275;28;20108;-82
2021/10/19 00:40:00;;;;;;;7.23;2.40;;;10.40;68.80;;;;;;5007085;28;20113;-82
2021/10/19 00:42:26;;;;;;;6.97;3.20;;;10.30;68.70;;;;;;5010247;28;20026;-82
2021/10/19 00:44:52;;;;;;;3.83;2.13;;;10.30;68.80;;;;;;5010712;28;20393;-82
2021/10/19 00:47:21;;;;;;;14.27;2.40;;;10.30;68.80;;;;;;5025763;28;20118;-82
2021/10/19 00:49:49;;;;;;;5.10;3.13;;;10.20;68.70;;;;;;5009492;28;20037;-83
2021/10/19 00:52:15;;;;;;;5.10;2.27;;;10.20;68.70;;;;;;5006117;28;20102;-82
2021/10/19 00:54:42;;;;;;;3.07;1.90;;;10.20;68.70;;;;;;4997889;28;20038;-82
2021/10/19 00:57:08;;;;;;;3.33;2.07;;;10.20;68.50;;;;;;4998781;28;20022;-82
2021/10/19 00:59:36;;;;;;;5.80;1.93;;;10.10;68.60;;;;;;4991076;28;20444;-82
2021/10/19 01:02:03;;;;;;;2.97;1.60;;;10.10;68.90;;;;;;4989594;28;20081;-82
2021/10/19 01:04:29;;;;;;;4.67;2.00;;;10.20;68.70;;;;;;4990957;28;20027;-82
2021/10/19 01:06:55;;;;;;;3.47;2.27;;;10.10;68.70;;;;;;5002777;28;20033;-82
2021/10/19 01:09:21;;;;;;;6.50;2.70;;;10.20;68.80;;;;;;5013048;28;20041;-82
2021/10/19 01:11:47;;;;;;;5.47;3.43;;;10.20;68.50;;;;;;5011883;28;20033;-82
2021/10/19 01:14:13;;;;;;;5.33;3.33;;;10.10;68.60;;;;;;5012171;28;20436;-82
2021/10/19 01:16:38;;;;;;;3.33;2.20;;;10.10;68.90;;;;;;5012708;28;20025;-82
2021/10/19 01:19:04;;;;;;;7.00;3.30;;;10.10;69.00;;;;;;5031616;28;20053;-82
2021/10/19 01:21:30;;;;;;;5.50;2.63;;;10.20;68.80;;;;;;5032936;28;20496;-82
2021/10/19 01:23:56;;;;;;;3.77;2.17;;;10.20;68.70;;;;;;5013862;28;20033;-82
2021/10/19 01:26:23;;;;;;;4.67;2.27;;;10.10;68.50;;;;;;5033312;28;20570;-82
2021/10/19 01:28:49;;;;;;;4.43;2.17;;;10.00;68.50;;;;;;5015650;28;20052;-82
2021/10/19 01:31:14;;;;;;;4.00;2.10;;;9.90;68.80;;;;;;5010814;28;20064;-82
2021/10/19 01:33:41;;;;;;;4.33;2.07;;;9.80;69.20;;;;;;5010361;28;20037;-82
2021/10/19 01:36:08;;;;;;;8.43;2.50;;;9.90;69.20;;;;;;5028120;28;20550;-82
2021/10/19 01:38:35;;;;;;;4.27;2.67;;;9.90;69.20;;;;;;5033429;28;20112;-82
2021/10/19 01:41:02;;;;;;;5.03;2.17;;;9.80;69.20;;;;;;5005611;28;20013;-82
2021/10/19 01:43:29;;;;;;;6.00;2.90;;;9.90;69.50;;;;;;5012261;28;20089;-82
2021/10/19 01:46:00;;;;;;;4.30;2.77;;;9.90;69.30;;;;;;5034526;28;20025;-82
2021/10/19 01:48:27;;;;;;;4.60;2.27;;;10.00;69.30;;;;;;5025522;28;20100;-82
2021/10/19 01:50:54;;;;;;;5.80;2.63;;;10.00;69.00;;;;;;5006088;28;20124;-82
2021/10/19 01:53:20;;;;;;;3.50;2.03;;;10.00;69.20;;;;;;5015787;28;20091;-82
2021/10/19 01:55:46;;;;;;;4.00;2.80;;;10.00;69.20;;;;;;4999192;28;20044;-82
2021/10/19 01:58:12;;;;;;;7.03;3.90;;;10.00;69.20;;;;;;5013144;28;20101;-82
2021/10/19 02:00:40;;;;;;;4.57;3.20;;;10.00;69.20;;;;;;5003939;28;20064;-83
2021/10/19 02:03:07;;;;;;;7.37;2.90;;;10.10;69.10;;;;;;5032781;28;20014;-82
2021/10/19 02:05:32;;;;;;;7.43;3.20;;;10.20;69.10;;;;;;5002583;28;20026;-82
2021/10/19 02:08:00;;;;;;;9.13;3.93;;;10.20;68.80;;;;;;5010802;28;20056;-82
2021/10/19 02:10:25;;;;;;;4.70;3.37;;;10.10;68.80;;;;;;5014637;28;20091;-82
2021/10/19 02:12:51;;;;;;;7.90;2.33;;;10.10;68.90;;;;;;5030618;28;20026;-82
2021/10/19 02:15:17;;;;;;;3.23;2.10;;;10.10;69.00;;;;;;5025842;28;20484;-82
2021/10/19 02:17:44;;;;;;;3.30;2.27;;;10.10;68.70;;;;;;5011783;28;20117;-83
2021/10/19 02:20:10;;;;;;;4.80;2.53;;;10.00;68.70;;;;;;5010830;28;20025;-82
2021/10/19 02:22:35;;;;;;;7.27;3.83;;;9.90;69.40;;;;;;5011705;28;20360;-82
2021/10/19 02:25:02;;;;;;;6.70;3.10;;;9.90;68.90;;;;;;5032909;28;20036;-82
2021/10/19 02:27:27;;;;;;;5.43;2.97;;;9.90;69.00;;;;;;5007398;28;20029;-83
2021/10/19 02:29:53;;;;;;;6.43;3.37;;;9.90;69.00;;;;;;5011559;28;20029;-82
2021/10/19 02:32:19;;;;;;;4.50;3.00;;;9.80;68.80;;;;;;5014172;28;20040;-83
2021/10/19 02:34:45;;;;;;;6.03;2.47;;;9.80;68.90;;;;;;5029933;28;20044;-82
2021/10/19 02:37:11;;;;;;;3.90;2.20;;;9.80;68.90;;;;;;5027475;28;20025;-82
2021/10/19 02:39:37;;;;;;;3.80;2.30;;;9.70;69.00;;;;;;5029719;28;20502;-82
2021/10/19 02:42:03;;;;;;;3.50;2.57;;;9.70;69.00;;;;;;5031300;28;20029;-83
2021/10/19 02:44:29;;;;;;;4.53;2.73;;;9.70;68.90;;;;;;5028527;28;20045;-82
2021/10/19 02:46:55;;;;;;;5.93;2.90;;;9.60;68.90;;;;;;5014133;28;20029;-83
2021/10/19 02:49:20;;;;;;;5.03;2.87;;;9.60;68.90;;;;;;5030571;28;20028;-82
2021/10/19 02:51:46;;;;;;;3.27;2.33;;;9.50;69.20;;;;;;5020893;28;20055;-82
2021/10/19 02:54:12;;;;;;;3.70;2.03;;;9.60;69.10;;;;;;5029259;28;20044;-82
2021/10/19 02:56:38;;;;;;;3.70;2.07;;;9.50;69.10;;;;;;5011883;28;20372;-82
2021/10/19 02:59:04;;;;;;;4.57;2.13;;;9.50;69.40;;;;;;5023309;28;20107;-82
2021/10/19 03:01:30;;;;;;;3.83;2.00;;;9.40;69.20;;;;;;5024193;28;20046;-82
2021/10/19 03:03:57;;;;;;;3.70;2.23;;;9.40;69.20;;;;;;5023535;28;20026;-82
2021/10/19 03:06:22;;;;;;;3.87;2.30;;;9.40;69.40;;;;;;5004420;28;20512;-81
2021/10/19 03:08:48;;;;;;;4.63;2.13;;;9.40;69.60;;;;;;5022722;28;20029;-81
2021/10/19 03:11:14;;;;;;;10.00;4.07;;;9.40;69.50;;;;;;5021349;28;20037;-82
2021/10/19 03:13:39;;;;;;;7.90;4.07;;;9.50;69.60;;;;;;5009510;28;20044;-82
2021/10/19 03:16:05;;;;;;;6.27;4.37;;;9.70;69.80;;;;;;5007316;28;20029;-82
2021/10/19 03:18:31;;;;;;;8.90;4.23;;;9.70;69.50;;;;;;5006758;28;20044;-82
2021/10/19 03:20:56;;;;;;;10.10;3.67;;;9.70;69.40;;;;;;5021858;28;20041;-82
2021/10/19 03:23:22;;;;;;;5.23;2.83;;;9.70;69.40;;;;;;5022168;28;20025;-82
2021/10/19 03:25:48;;;;;;;5.77;2.80;;;9.70;69.60;;;;;;5023341;28;20026;-82
2021/10/19 03:28:14;;;;;;;3.47;2.37;;;9.60;69.30;;;;;;5007376;28;20052;-82
2021/10/19 03:30:40;;;;;;;4.63;2.37;;;9.50;69.20;;;;;;5004456;28;20029;-82
2021/10/19 03:33:06;;;;;;;3.07;2.07;;;9.40;69.20;;;;;;5021786;28;20021;-82
2021/10/19 03:35:32;;;;;;;3.20;2.00;;;9.30;69.40;;;;;;5001274;28;20017;-82
2021/10/19 03:37:58;;;;;;;3.30;2.10;;;9.30;69.50;;;;;;5008341;28;20453;-82
2021/10/19 03:40:24;;;;;;;7.90;2.40;;;9.30;69.50;;;;;;5012262;28;20120;-82
2021/10/19 03:42:49;;;;;;;3.23;1.73;;;9.20;69.50;;;;;;5016986;28;21408;-81
2021/10/19 03:45:16;;;;;;;7.23;4.07;;;9.10;69.40;;;;;;5015721;28;20029;-82
2021/10/19 03:47:43;;;;;;;3.47;2.10;;;9.10;69.80;;;;;;5022161;28;20496;-82
2021/10/19 03:50:10;;;;;;;6.10;2.63;;;9.10;69.80;;;;;;5030834;28;20029;-82
2021/10/19 03:52:36;;;;;;;4.00;2.70;;;9.10;69.70;;;;;;5030338;28;20396;-82
2021/10/19 03:55:03;;;;;;;4.90;3.10;;;9.10;69.70;;;;;;5011806;28;20151;-82
2021/10/19 03:57:28;;;;;;;8.07;3.30;;;9.10;70.10;;;;;;5029772;28;20022;-83
2021/10/19 03:59:54;;;;;;;5.80;2.70;;;9.10;70.20;;;;;;5010687;28;20031;-82
2021/10/19 04:02:19;;;;;;;4.77;2.73;;;9.10;69.90;;;;;;5008177;28;20026;-82
2021/10/19 04:04:45;;;;;;;7.07;3.10;;;9.20;70.10;;;;;;5001979;28;20553;-82
2021/10/19 04:07:12;;;;;;;5.77;3.07;;;9.20;70.20;;;;;;5019418;28;20026;-82
2021/10/19 04:09:38;;;;;;;5.07;3.00;;;9.20;70.40;;;;;;5024914;28;20114;-82
2021/10/19 04:12:04;;;;;;;3.70;2.40;;;9.30;70.00;;;;;;5000365;28;20112;-82
2021/10/19 04:14:29;;;;;;;5.33;2.80;;;9.30;70.00;;;;;;5023522;28;20281;-82
2021/10/19 04:16:55;;;;;;;7.50;3.97;;;9.30;70.00;;;;;;5000825;28;20029;-82
2021/10/19 04:19:21;;;;;;;10.73;4.70;;;9.30;70.00;;;;;;5002717;28;20428;-82
2021/10/19 04:21:49;;;;;;;8.37;5.10;;;9.30;70.20;;;;;;5025458;28;20026;-82
2021/10/19 04:24:16;;;;;;;6.77;4.37;;;9.40;69.80;;;;;;5023089;28;20022;-82
2021/10/19 04:26:42;;;;;;;10.80;5.77;;;9.30;69.60;;;;;;5004993;28;20057;-82
2021/10/19 04:29:09;;;;;;;14.60;5.53;;;9.30;69.70;;;;;;5028340;28;20088;-82
2021/10/19 04:31:36;;;;;;;6.57;4.20;;;9.20;69.70;;;;;;5030068;28;22348;-82
2021/10/19 04:34:03;;;;;;;6.00;3.70;;;9.20;69.70;;;;;;5012256;28;20091;-82
2021/10/19 04:36:29;;;;;;;3.27;2.47;;;9.20;69.80;;;;;;5031543;28;20026;-82
2021/10/19 04:38:55;;;;;;;5.47;2.97;;;9.20;70.40;;;;;;5030008;28;20030;-82
2021/10/19 04:41:20;;;;;;;5.53;3.27;;;9.20;69.70;;;;;;5010002;28;20026;-82
2021/10/19 04:43:46;;;;;;;10.20;3.07;;;9.20;69.50;;;;;;5033992;28;20029;-81
2021/10/19 04:46:12;;;;;;;5.23;3.30;;;9.20;69.60;;;;;;5007712;28;20141;-82
2021/10/19 04:48:38;;;;;;;10.23;6.57;;;9.30;69.40;;;;;;5031147;28;20025;-81
2021/10/19 04:51:04;;;;;;;12.00;8.10;;;9.20;69.40;;;;;;5009828;28;20117;-82
2021/10/19 04:53:31;;;;;;;10.53;7.07;;;9.20;69.40;;;;;;5035285;28;20053;-82
2021/10/19 04:55:58;;;;;;;9.77;6.00;;;9.00;69.50;;;;;;5011659;28;20034;-82
2021/10/19 04:58:24;;;;;;;7.73;4.23;;;9.00;69.70;;;;;;5014678;28;20026;-82
2021/10/19 05:00:50;;;;;;;7.93;4.83;;;9.00;69.80;;;;;;5016509;28;20022;-82
2021/10/19 05:03:17;;;;;;;8.40;4.20;;;9.00;70.00;;;;;;5017792;28;20028;-82
2021/10/19 05:05:45;;;;;;;6.63;3.97;;;9.00;70.20;;;;;;5008547;28;20515;-82
2021/10/19 05:08:10;;;;;;;8.00;4.10;;;9.00;70.00;;;;;;5015675;28;20025;-80
2021/10/19 05:10:36;;;;;;;9.07;5.00;;;8.90;70.10;;;;;;5002287;28;20026;-80
2021/10/19 05:13:02;;;;;;;9.93;5.53;;;9.00;70.20;;;;;;5024081;28;20424;-80
2021/10/19 05:15:28;;;;;;;7.33;4.63;;;9.00;70.00;;;;;;5007662;28;20030;-81
2021/10/19 05:17:54;;;;;;;8.37;4.27;;;9.00;70.10;;;;;;5018005;28;20065;-80
2021/10/19 05:20:19;;;;;;;5.73;3.73;;;9.00;70.40;;;;;;5031938;28;20029;-80
2021/10/19 05:22:45;;;;;;;9.00;4.83;;;9.00;70.40;;;;;;5006859;28;20025;-80
2021/10/19 05:25:12;;;;;;;15.07;5.20;;;9.10;70.40;;;;;;5019822;28;20030;-80
2021/10/19 05:27:39;;;;;;;13.53;6.10;;;9.10;70.50;;;;;;5035117;28;20053;-80
2021/10/19 05:30:06;;;;;;;17.67;8.87;;;9.10;70.50;;;;;;5004785;28;20026;-80
2021/10/19 05:32:32;;;;;;;17.30;10.90;;;9.10;70.10;;;;;;5017252;28;20029;-80
2021/10/19 05:34:57;;;;;;;14.80;10.00;;;9.00;70.00;;;;;;5034174;28;20036;-80
2021/10/19 05:37:23;;;;;;;26.93;16.10;;;9.00;70.20;;;;;;5016599;28;20037;-80
2021/10/19 05:39:49;;;;;;;14.23;9.37;;;8.90;70.10;;;;;;5016336;28;20028;-80
2021/10/19 05:42:14;;;;;;;15.03;7.23;;;8.90;70.00;;;;;;5021017;28;20457;-80
2021/10/19 05:44:40;;;;;;;12.10;7.80;;;9.00;70.10;;;;;;5029178;28;20034;-80
2021/10/19 05:47:07;;;;;;;11.27;6.30;;;8.90;70.10;;;;;;5027302;28;20039;-80
2021/10/19 05:49:33;;;;;;;10.67;6.60;;;8.90;70.80;;;;;;5013738;28;20551;-80
2021/10/19 05:51:58;;;;;;;12.00;6.73;;;9.10;70.80;;;;;;5004943;28;20034;-80
2021/10/19 05:54:25;;;;;;;11.70;6.40;;;9.10;70.60;;;;;;5014946;28;20443;-80
2021/10/19 05:56:52;;;;;;;13.33;6.40;;;9.00;70.60;;;;;;5007100;28;20476;-80
2021/10/19 05:59:18;;;;;;;10.03;5.33;;;9.00;70.70;;;;;;5016660;28;20024;-80
2021/10/19 06:01:44;;;;;;;8.90;5.57;;;9.10;70.60;;;;;;5034118;28;20096;-80
2021/10/19 06:04:10;;;;;;;12.30;5.27;;;9.10;70.60;;;;;;5028000;28;20113;-80
2021/10/19 06:06:36;;;;;;;7.90;5.17;;;9.20;70.50;;;;;;5005385;28;20128;-80
2021/10/19 06:09:02;;;;;;;8.03;5.23;;;9.20;70.50;;;;;;5016035;28;20037;-80
2021/10/19 06:11:28;;;;;;;7.77;5.00;;;9.20;70.40;;;;;;5005911;28;20052;-80
2021/10/19 06:13:53;;;;;;;10.20;4.60;;;9.20;70.50;;;;;;5019063;28;20053;-80
2021/10/19 06:16:19;;;;;;;15.70;5.60;;;9.20;70.40;;;;;;5009306;28;20030;-81
2021/10/19 06:18:45;;;;;;;11.80;5.90;;;9.30;70.40;;;;;;4999469;28;20046;-80
2021/10/19 06:21:10;;;;;;;11.93;6.27;;;9.30;70.50;;;;;;5006555;28;20452;-82
2021/10/19 06:23:36;;;;;;;14.43;7.37;;;9.40;70.60;;;;;;5033473;28;20028;-82
2021/10/19 06:26:03;;;;;;;11.80;6.77;;;9.30;70.50;;;;;;5032732;28;20057;-80
2021/10/19 06:28:28;;;;;;;14.13;6.17;;;9.30;70.50;;;;;;5013543;28;20116;-80
2021/10/19 06:30:54;;;;;;;10.00;7.07;;;9.30;70.80;;;;;;5032281;28;20109;-81
2021/10/19 06:33:19;;;;;;;15.83;10.03;;;9.30;71.00;;;;;;5021585;28;20480;-80
2021/10/19 06:35:45;;;;;;;15.80;10.17;;;9.40;71.30;;;;;;5003094;28;20423;-81
2021/10/19 06:38:11;;;;;;;15.60;8.17;;;9.40;71.00;;;;;;5007001;28;20423;-81
2021/10/19 06:40:37;;;;;;;16.47;10.33;;;9.50;71.00;;;;;;5028922;28;20365;-81
2021/10/19 06:43:05;;;;;;;13.73;7.47;;;9.40;70.90;;;;;;5028440;28;20025;-81
2021/10/19 06:45:31;;;;;;;11.53;7.00;;;9.50;71.00;;;;;;5030195;28;20363;-81
2021/10/19 06:47:57;;;;;;;13.10;8.20;;;9.50;71.20;;;;;;5031316;28;20029;-81
2021/10/19 06:50:23;;;;;;;11.80;7.27;;;9.50;70.90;;;;;;5030160;28;20025;-81
2021/10/19 06:52:49;;;;;;;28.00;14.50;;;9.50;71.10;;;;;;5005695;28;20497;-80
2021/10/19 06:55:15;;;;;;;16.47;7.73;;;9.60;71.40;;;;;;5017060;28;20033;-80
2021/10/19 06:57:43;;;;;;;9.97;5.87;;;9.60;71.00;;;;;;5023248;28;20496;-81
2021/10/19 07:00:14;;;;;;;19.70;7.93;;;9.70;71.00;;;;;;5003251;28;20030;-80
2021/10/19 07:02:40;;;;;;;14.30;7.43;;;9.80;70.60;;;;;;5019218;28;20376;-80
2021/10/19 07:05:07;;;;;;;13.10;6.73;;;9.70;70.40;;;;;;5014585;28;20034;-80
2021/10/19 07:07:33;;;;;;;20.70;8.07;;;9.80;70.50;;;;;;5032174;28;20033;-80
2021/10/19 07:10:00;;;;;;;12.37;7.13;;;9.80;70.40;;;;;;5006876;28;20049;-80
2021/10/19 07:12:27;;;;;;;10.97;6.23;;;9.90;70.30;;;;;;5013393;28;20032;-80
2021/10/19 07:14:52;;;;;;;13.37;7.43;;;9.90;70.40;;;;;;5007236;28;20107;-80
2021/10/19 07:17:18;;;;;;;12.40;7.13;;;9.90;70.60;;;;;;5024202;28;20073;-81
2021/10/19 07:19:46;;;;;;;22.33;9.20;;;10.00;70.30;;;;;;5031746;28;20559;-81
2021/10/19 07:22:12;;;;;;;19.07;9.37;;;10.00;70.30;;;;;;5011913;28;20483;-81
2021/10/19 07:24:38;;;;;;;27.23;13.37;;;10.10;70.10;;;;;;5024718;28;20034;-81
2021/10/19 07:27:03;;;;;;;27.27;10.67;;;10.10;70.00;;;;;;5014687;28;20021;-81
2021/10/19 07:29:29;;;;;;;23.03;11.57;;;10.10;70.30;;;;;;5032680;28;20132;-81
2021/10/19 07:31:55;;;;;;;21.07;8.37;;;10.20;70.20;;;;;;5001912;28;20033;-81
2021/10/19 07:34:21;;;;;;;22.60;10.17;;;10.30;70.10;;;;;;4995367;28;20120;-81
2021/10/19 07:36:46;;;;;;;20.93;8.90;;;10.30;70.00;;;;;;4995258;28;20087;-81
2021/10/19 07:39:13;;;;;;;14.87;8.37;;;10.40;70.00;;;;;;5011968;28;20036;-81
2021/10/19 07:41:39;;;;;;;17.03;6.03;;;10.40;70.00;;;;;;5014363;28;20075;-81
2021/10/19 07:44:06;;;;;;;11.27;5.77;;;10.40;69.60;;;;;;5003935;28;20582;-81
2021/10/19 07:46:32;;;;;;;14.20;5.40;;;10.40;69.50;;;;;;5013591;28;20079;-81
2021/10/19 07:48:58;;;;;;;11.23;5.43;;;10.50;69.40;;;;;;5013455;28;20116;-81
2021/10/19 07:51:23;;;;;;;16.77;5.40;;;10.50;69.30;;;;;;5014832;28;20025;-81
2021/10/19 07:53:49;;;;;;;13.13;4.70;;;10.50;69.30;;;;;;5013762;28;20112;-81
2021/10/19 07:56:17;;;;;;;10.60;5.40;;;10.50;69.20;;;;;;5027286;28;20029;-81
2021/10/19 07:58:42;;;;;;;13.40;5.27;;;10.50;69.40;;;;;;5024085;28;20025;-81
2021/10/19 08:01:08;;;;;;;9.63;5.23;;;10.50;69.60;;;;;;5027230;28;20511;-81
2021/10/19 08:03:34;;;;;;;11.13;5.17;;;10.60;69.40;;;;;;5000670;28;20041;-80
2021/10/19 08:06:00;;;;;;;10.03;5.93;;;10.60;69.40;;;;;;5024915;28;20128;-81
2021/10/19 08:08:25;;;;;;;13.37;6.10;;;10.60;69.50;;;;;;5018375;28;20108;-81
2021/10/19 08:10:52;;;;;;;13.63;6.03;;;10.60;69.50;;;;;;5018769;28;20156;-81
2021/10/19 08:13:19;;;;;;;12.60;6.13;;;10.80;69.50;;;;;;5030826;28;20025;-81
2021/10/19 08:15:45;;;;;;;9.70;5.80;;;11.00;69.80;;;;;;5013454;28;20399;-81
2021/10/19 08:18:12;;;;;;;9.30;4.90;;;11.10;69.10;;;;;;5015200;28;20045;-80
2021/10/19 08:20:39;;;;;;;8.63;5.57;;;11.20;68.90;;;;;;5034591;28;20123;-83
2021/10/19 08:23:05;;;;;;;13.63;5.17;;;11.20;68.70;;;;;;5036704;28;20032;-83
2021/10/19 08:25:31;;;;;;;11.40;5.90;;;11.30;68.80;;;;;;5018484;28;20718;-83
2021/10/19 08:27:57;;;;;;;17.87;5.60;;;11.40;68.70;;;;;;5017490;28;20037;-83
2021/10/19 08:30:23;;;;;;;10.83;5.37;;;11.40;68.70;;;;;;5017080;28;20025;-83
2021/10/19 08:32:50;;;;;;;11.93;6.57;;;11.50;68.60;;;;;;5019091;28;20415;-84
2021/10/19 08:35:18;;;;;;;14.73;4.80;;;11.60;68.60;;;;;;5000986;28;20509;-84
2021/10/19 08:37:44;;;;;;;10.50;5.13;;;11.70;68.40;;;;;;5013329;28;20029;-84
2021/10/19 08:40:11;;;;;;;7.47;4.67;;;11.70;67.90;;;;;;5018864;28;20032;-84
2021/10/19 08:42:42;;;;;;;8.10;5.20;;;11.70;68.10;;;;;;5036283;28;20030;-84
2021/10/19 08:45:09;;;;;;;11.53;5.30;;;11.80;67.80;;;;;;5036404;28;20026;-84
2021/10/19 08:47:35;;;;;;;11.80;5.13;;;12.00;67.20;;;;;;5035749;28;20040;-83
2021/10/19 08:50:03;;;;;;;10.00;4.50;;;12.00;66.90;;;;;;5036479;28;20030;-84
2021/10/19 08:52:29;;;;;;;8.43;4.50;;;12.20;66.90;;;;;;5018373;28;20041;-83
2021/10/19 08:54:54;;;;;;;6.73;4.00;;;12.30;65.90;;;;;;5017850;28;20029;-84
2021/10/19 08:57:20;;;;;;;9.13;3.70;;;12.40;65.90;;;;;;5036132;28;20029;-83
2021/10/19 08:59:48;;;;;;;5.50;3.40;;;12.50;65.30;;;;;;5018617;28;20026;-83
2021/10/19 09:02:15;;;;;;;10.50;4.20;;;12.60;64.80;;;;;;5014008;28;20029;-83
2021/10/19 09:04:42;;;;;;;6.27;3.90;;;12.60;64.30;;;;;;5013476;28;20063;-83
2021/10/19 09:07:09;;;;;;;9.07;4.20;;;12.70;64.20;;;;;;5007376;28;20518;-84
2021/10/19 09:09:35;;;;;;;10.30;4.33;;;12.70;63.80;;;;;;5016730;28;20029;-84
2021/10/19 09:12:02;;;;;;;9.47;4.37;;;12.70;63.60;;;;;;5018572;28;20032;-84
2021/10/19 09:14:37;;;;;;;7.77;3.67;;;12.70;63.40;;;;;;5012338;28;20032;-84
2021/10/19 09:17:04;;;;;;;6.83;3.53;;;12.70;63.30;;;;;;5005848;28;20117;-84
2021/10/19 09:19:34;;;;;;;7.30;3.70;;;12.70;63.30;;;;;;5007700;28;20026;-83
2021/10/19 09:22:05;;;;;;;6.57;3.43;;;12.80;63.30;;;;;;5035201;28;20025;-83
2021/10/19 09:24:32;;;;;;;5.20;3.60;;;12.90;62.70;;;;;;5017717;28;20476;-83
2021/10/19 09:27:17;;;;;;;9.90;3.57;;;13.00;62.80;;;;;;5017790;28;20037;-83
2021/10/19 09:29:47;;;;;;;8.40;3.67;;;13.10;62.00;;;;;;5001704;28;20543;-83
2021/10/19 09:32:21;;;;;;;10.10;4.20;;;13.20;62.10;;;;;;5016261;28;20432;-84
2021/10/19 09:34:48;;;;;;;9.23;3.60;;;13.20;62.00;;;;;;5026882;28;20060;-84
2021/10/19 09:37:22;;;;;;;10.60;3.53;;;13.20;61.90;;;;;;5004939;28;20100;-84
2021/10/19 09:39:52;;;;;;;6.93;3.53;;;13.20;61.80;;;;;;5015417;28;20031;-83
2021/10/19 09:42:22;;;;;;;6.53;3.43;;;13.30;61.40;;;;;;5015578;28;20234;-84
2021/10/19 09:44:52;;;;;;;6.40;3.47;;;13.30;61.40;;;;;;5028163;28;20030;-84
2021/10/19 09:47:19;;;;;;;6.37;3.47;;;13.40;61.40;;;;;;5029331;28;20075;-84
2021/10/19 09:49:47;;;;;;;6.63;3.40;;;13.50;60.60;;;;;;5017713;28;20136;-84
2021/10/19 09:52:13;;;;;;;9.93;3.37;;;13.50;60.40;;;;;;5027908;28;20029;-85
2021/10/19 09:54:41;;;;;;;7.80;3.57;;;13.50;60.30;;;;;;5007224;28;20026;-85
2021/10/19 09:57:08;;;;;;;12.60;3.40;;;13.60;59.90;;;;;;5011619;28;20033;-84
2021/10/19 09:59:35;;;;;;;10.17;3.73;;;13.60;59.40;;;;;;5030624;28;20037;-84
2021/10/19 10:02:02;;;;;;;12.73;3.77;;;13.60;59.50;;;;;;5020338;28;20073;-84
2021/10/19 10:04:28;;;;;;;6.07;3.37;;;13.70;59.40;;;;;;5008325;28;20025;-84
2021/10/19 10:06:56;;;;;;;13.57;4.17;;;13.70;59.10;;;;;;5014869;28;20037;-84
2021/10/19 10:09:23;;;;;;;9.50;4.73;;;13.70;59.60;;;;;;5014714;28;20029;-84
2021/10/19 10:11:48;;;;;;;10.77;4.87;;;13.80;59.20;;;;;;5034273;28;20553;-85
2021/10/19 10:14:14;;;;;;;7.27;4.10;;;14.00;59.30;;;;;;5016219;28;20034;-84
2021/10/19 10:16:49;;;;;;;7.43;3.87;;;14.10;59.30;;;;;;5016201;28;20033;-84
2021/10/19 10:19:18;;;;;;;6.57;3.70;;;14.10;59.20;;;;;;5008187;28;20262;-84
2021/10/19 10:21:49;;;;;;;10.03;4.47;;;14.10;59.00;;;;;;5016788;28;20032;-84
2021/10/19 10:24:27;;;;;;;7.83;3.60;;;14.10;59.10;;;;;;5034723;28;20469;-84
2021/10/19 10:27:04;;;;;;;10.90;3.77;;;14.20;59.20;;;;;;5002845;28;20030;-84
2021/10/19 10:29:38;;;;;;;9.47;6.03;;;14.20;59.50;;;;;;5016198;28;20025;-84
2021/10/19 10:32:04;;;;;;;6.30;3.90;;;14.20;59.40;;;;;;5034199;28;20475;-83
2021/10/19 10:34:31;;;;;;;8.73;4.07;;;14.10;59.70;;;;;;5016406;28;20116;-85
2021/10/19 10:37:10;;;;;;;9.73;4.57;;;14.20;59.80;;;;;;5016304;28;20651;-83
2021/10/19 10:39:45;;;;;;;8.00;3.77;;;14.20;59.80;;;;;;5016595;28;20031;-85
2021/10/19 10:42:12;;;;;;;7.10;3.83;;;14.20;59.90;;;;;;5033326;28;20100;-84
2021/10/19 10:44:40;;;;;;;8.13;4.37;;;14.30;60.10;;;;;;5034473;28;20033;-85
2021/10/19 10:47:08;;;;;;;8.80;4.30;;;14.30;60.10;;;;;;5016477;28;20340;-85
2021/10/19 10:49:34;;;;;;;8.83;4.87;;;14.40;59.90;;;;;;5016298;28;20036;-85
2021/10/19 10:52:02;;;;;;;14.30;5.13;;;14.40;60.00;;;;;;5012873;28;20079;-85
2021/10/19 10:54:28;;;;;;;8.03;4.70;;;14.40;59.70;;;;;;5014254;28;20022;-85
2021/10/19 10:56:57;;;;;;;11.50;5.37;;;14.40;59.90;;;;;;5014453;28;20053;-85
2021/10/19 10:59:27;;;;;;;11.37;5.87;;;14.40;59.80;;;;;;5033178;28;20048;-82
2021/10/19 11:02:06;;;;;;;8.77;5.53;;;14.40;59.50;;;;;;5015942;28;20384;-82
2021/10/19 11:04:32;;;;;;;16.20;8.07;;;14.50;59.70;;;;;;5033818;28;20152;-83
2021/10/19 11:06:58;;;;;;;15.30;6.50;;;14.50;59.50;;;;;;5016200;28;20496;-83
2021/10/19 11:09:29;;;;;;;10.90;6.07;;;14.40;59.40;;;;;;5033390;28;20025;-83
2021/10/19 11:11:58;;;;;;;8.73;5.07;;;14.40;59.50;;;;;;5016309;28;20028;-83
2021/10/19 11:14:25;;;;;;;10.03;5.40;;;14.40;59.60;;;;;;5009974;28;20030;-82
2021/10/19 11:16:56;;;;;;;11.13;5.57;;;14.40;59.70;;;;;;5009898;28;20080;-84
2021/10/19 11:19:25;;;;;;;17.70;6.77;;;14.50;59.80;;;;;;5001441;28;20037;-83
2021/10/19 11:21:59;;;;;;;12.73;6.63;;;14.50;59.80;;;;;;5012317;28;20080;-83
2021/10/19 11:24:27;;;;;;;14.63;7.70;;;14.60;60.00;;;;;;5028118;28;20028;-83
2021/10/19 11:26:54;;;;;;;18.83;7.90;;;14.60;59.90;;;;;;5033404;28;20061;-82
2021/10/19 11:29:20;;;;;;;10.73;7.10;;;14.70;59.90;;;;;;5015140;28;20033;-83
2021/10/19 11:31:47;;;;;;;11.83;7.00;;;14.70;59.90;;;;;;5032811;28;20029;-83
2021/10/19 11:34:14;;;;;;;17.40;10.87;;;14.70;59.70;;;;;;5015586;28;20739;-83
2021/10/19 11:36:40;;;;;;;22.07;12.37;;;14.80;59.70;;;;;;5033119;28;20025;-82
2021/10/19 11:39:12;;;;;;;23.90;14.27;;;14.80;59.60;;;;;;5033212;28;20034;-82
2021/10/19 11:41:39;;;;;;;24.90;17.08;;;14.90;59.50;;;;;;5013562;28;20044;-82
2021/10/19 11:44:06;;;;;;;16.05;11.43;;;14.90;59.50;;;;;;4997137;28;20034;-83
2021/10/19 11:46:35;;;;;;;16.30;10.07;;;14.90;59.50;;;;;;5011246;28;20389;-83
2021/10/19 11:49:08;;;;;;;14.00;7.70;;;14.90;59.50;;;;;;5015604;28;20033;-83
2021/10/19 11:51:34;;;;;;;14.55;7.57;;;14.90;59.50;;;;;;5015349;28;20074;-83
2021/10/19 11:54:05;;;;;;;17.10;6.80;;;15.00;59.60;;;;;;5015762;28;20059;-83
2021/10/19 11:56:31;;;;;;;9.83;6.03;;;15.00;59.50;;;;;;5015715;28;20118;-83
2021/10/19 11:59:06;;;;;;;15.27;6.53;;;15.00;59.50;;;;;;5033477;28;20029;-83
2021/10/19 12:01:42;;;;;;;10.80;5.83;;;15.00;59.40;;;;;;5015284;28;20494;-84
2021/10/19 12:04:12;;;;;;;10.13;5.47;;;15.10;59.30;;;;;;5014421;28;20399;-85
2021/10/19 12:06:45;;;;;;;12.57;6.43;;;15.10;59.20;;;;;;5015313;28;20109;-84
2021/10/19 12:09:14;;;;;;;8.68;5.68;;;15.10;59.10;;;;;;5015369;28;20052;-85
2021/10/19 12:11:47;;;;;;;15.93;6.13;;;15.20;59.10;;;;;;5015025;28;20036;-85
2021/10/19 12:14:13;;;;;;;;;;;15.20;58.90;;;;;;5015442;28;20026;-85
2021/10/19 12:16:39;;;;;;;12.50;6.23;;;15.20;59.10;;;;;;5013814;28;19936;-84
2021/10/19 12:19:04;;;;;;;20.02;6.30;;;15.20;59.10;;;;;;5010546;28;20064;-82
2021/10/19 12:21:32;;;;;;;17.27;5.83;;;15.10;59.00;;;;;;5001965;28;20023;-82
2021/10/19 12:24:03;;;;;;;11.97;5.40;;;15.10;59.00;;;;;;5008285;28;20018;-82
2021/10/19 12:26:38;;;;;;;16.63;6.85;;;15.00;59.00;;;;;;5005974;28;20069;-83
2021/10/19 12:29:05;;;;;;;11.40;5.90;;;15.10;58.90;;;;;;4993335;28;20752;-82
2021/10/19 12:31:32;;;;;;;13.33;5.83;;;15.00;58.90;;;;;;5009465;28;20381;-82
2021/10/19 12:34:00;;;;;;;17.45;4.78;;;15.00;58.90;;;;;;5003834;28;20453;-82
2021/10/19 12:36:29;;;;;;;11.85;5.45;;;15.00;58.80;;;;;;5009062;28;20059;-83
2021/10/19 12:38:59;;;;;;;7.60;4.93;;;15.10;58.40;;;;;;5001116;28;20507;-83
2021/10/19 12:41:31;;;;;;;9.80;5.28;;;15.00;58.20;;;;;;5008271;28;20033;-83
2021/10/19 12:43:58;;;;;;;12.27;5.95;;;15.00;58.20;;;;;;5011975;28;20080;-83